Flight Track Log - Related Links

Times and Time Zones

All times are in EDT time to prevent confusion due to time zone crossing. See the LJY824 flight status page for this flight to view local times or setup timezone preferences in your user account.

Time Position Orientation Groundspeed Altitude Reporting Facility
EDT Latitude Longitude Course Direction KTS MPH feet Rate Location/Type
Fri 03:56:58 PM 40.9000 -74.0333 288° West 208 239 2,000  Level New York TRACON
Fri 03:57:58 PM 40.9167 -74.1000 255° West 228 262 4,900 2,000 Climbing New York TRACON
Fri 03:58:58 PM 40.9000 -74.1833 270° West 239 275 6,000 2,000 Climbing New York TRACON
Fri 03:59:58 PM 40.9000 -74.2667 258° West 229 264 8,900 3,000 Climbing New York TRACON
Fri 04:00:58 PM 40.8833 -74.3667 270° West 239 275 12,000 2,952 Climbing New York TRACON
Fri 04:02:04 PM 40.8833 -74.4500 258° West 238 274 15,100 1,974 Climbing New York TRACON
Fri 04:03:30 PM 40.8631 -74.5711 262° West 360 414 17,000 781 Climbing New York Center
Fri 04:04:30 PM 40.8508 -74.6858 263° West 304 350 17,000  Level New York Center
Fri 04:05:28 PM 40.8414 -74.7811 261° West 292 336 17,000 756 Level New York Center
Fri 04:06:29 PM 40.8269 -74.8956 264° West 297 342 18,500 1,525 Climbing New York Center
Fri 04:07:30 PM 40.8197 -74.9883 259° West 297 342 20,100 1,785 Climbing New York Center
Fri 04:08:30 PM 40.8056 -75.0861 262° West 284 327 22,100 2,000 Climbing New York Center
Fri 04:09:30 PM 40.7958 -75.1814 256° West 272 313 24,100 1,983 Climbing New York Center
Fri 04:10:28 PM 40.7803 -75.2653 261° West 256 295 26,000 958 Climbing New York Center
Fri 04:11:29 PM 40.7681 -75.3633 247° West 256 295 26,000  Level New York Center
Fri 04:12:30 PM 40.7372 -75.4597 245° Southwest 270 311 26,000  Level New York Center
Fri 04:13:31 PM 40.6997 -75.5639 243° Southwest 295 339 26,000  Level New York Center
Fri 04:14:28 PM 40.6603 -75.6653 244° Southwest 306 352 26,000  Level New York Center
Fri 04:15:29 PM 40.6225 -75.7664 243° Southwest 313 360 26,000  Level New York Center
Fri 04:16:29 PM 40.5850 -75.8647 243° Southwest 313 360 26,000  Level New York Center
Fri 04:17:30 PM 40.5453 -75.9656 243° Southwest 313 360 26,000  Level New York Center
Fri 04:18:30 PM 40.5053 -76.0692 244° Southwest 313 360 26,000  Level New York Center
Fri 04:19:28 PM 40.4672 -76.1700 242° Southwest 313 360 26,000  Level New York Center
Fri 04:20:29 PM 40.4272 -76.2678 245° Southwest 313 360 26,000  Level New York Center
Fri 04:21:30 PM 40.3914 -76.3683 242° Southwest 313 360 26,000  Level New York Center
Fri 04:22:28 PM 40.3511 -76.4686 252° West 313 360 26,000  Level New York Center
Fri 04:23:29 PM 40.3253 -76.5700 252° West 308 354 26,000  Level New York Center
Fri 04:24:30 PM 40.2994 -76.6739 250° West 308 354 26,000  Level New York Center
Fri 04:25:30 PM 40.2714 -76.7722 253° West 298 343 26,000  Level New York Center
Fri 04:26:28 PM 40.2475 -76.8736 251° West 298 343 26,000  Level New York Center
Fri 04:27:28 PM 40.2214 -76.9747 253° West 298 343 26,000  Level New York Center
Fri 04:28:30 PM 40.1972 -77.0758 253° West 298 343 26,000 -50 Level New York Center
Fri 04:29:28 PM 40.1731 -77.1769 250° West 298 343 25,900 -706 Descending New York Center
Fri 04:30:29 PM 40.1444 -77.2803 252° West 298 343 24,600 -1,230 Descending New York Center
Fri 04:31:30 PM 40.1200 -77.3811 252° West 298 343 23,400 -1,280 Descending New York Center
Fri 04:34:00 PM 40.0544 -77.6508 249° West 301 346 20,100 -971 Descending Cleveland Center
Fri 04:35:00 PM 40.0275 -77.7444 253° West 296 341 20,000 -50 Descending Cleveland Center
Fri 04:36:00 PM 40.0031 -77.8456 253° West 290 334 20,000  Level Cleveland Center
Fri 04:37:00 PM 39.9803 -77.9414 276° West 290 334 20,000 -200 Level Cleveland Center
Fri 04:38:00 PM 39.9886 -78.0386 285° West 275 316 19,600 -900 Descending Cleveland Center
Fri 04:39:00 PM 40.0075 -78.1328 286° West 270 311 18,200 -1,400 Descending Cleveland Center
Fri 04:40:00 PM 40.0281 -78.2242 284° West 270 311 16,800 -1,400 Descending Cleveland Center
Fri 04:41:00 PM 40.0444 -78.3106 288° West 259 298 15,400 -1,450 Descending Cleveland Center
Fri 04:42:00 PM 40.0669 -78.3992 283° West 259 298 13,900 -1,500 Descending Cleveland Center
Fri 04:43:20 PM 40.0903 -78.5289 291° West 265 305 11,900 -1,450 Descending Cleveland Center
Fri 04:44:00 PM 40.1058 -78.5825 283° West 259 298 11,000 -1,380 Descending Cleveland Center
Fri 04:45:00 PM 40.1219 -78.6717 287° West 264 304 9,600 -1,450 Descending Cleveland Center
Fri 04:46:00 PM 40.1422 -78.7581 284° West 251 289 8,100 -1,500 Descending Cleveland Center
Fri 04:47:00 PM 40.1581 -78.8417 288° West 251 289 6,600 -1,450 Descending Cleveland Center
Fri 04:48:00 PM 40.1781 -78.9228 283° West 246 283 5,200 -713 Descending Cleveland Center
Fri 04:49:23 PM 40.2006 -79.0472 283° West 246 283 4,900 -130 Descending Cleveland Center
Fri 04:50:18 PM 40.2142 -79.1258 290° West 241 277 4,900 -103 Level Cleveland Center
Fri 04:51:19 PM 40.2361 -79.2042 300° West 230 265 4,700 -645 Descending Cleveland Center
Fri 04:52:19 PM 40.2661 -79.2717 302° West 218 251 3,600 -992 Descending Cleveland Center
Fri 04:53:26 PM 40.2939 -79.3308 302° West 189 217 2,600 -896 Descending Cleveland Center

Login

Don't have an account? Register now (free) for customized features, flight alerts, and more!